sensor_id;sensor_type;location;lat;lon;timestamp;temperature;humidity
75321;DHT22;63920;52.130;5.584;2022-11-15T00:00:08;7.30;95.80
75321;DHT22;63920;52.130;5.584;2022-11-15T00:02:35;7.30;95.80
75321;DHT22;63920;52.130;5.584;2022-11-15T00:05:00;7.40;95.80
75321;DHT22;63920;52.130;5.584;2022-11-15T00:07:26;7.40;96.00
75321;DHT22;63920;52.130;5.584;2022-11-15T00:09:51;7.40;96.00
75321;DHT22;63920;52.130;5.584;2022-11-15T00:12:17;7.40;96.10
75321;DHT22;63920;52.130;5.584;2022-11-15T00:14:42;7.30;96.30
75321;DHT22;63920;52.130;5.584;2022-11-15T00:17:11;7.40;96.50
75321;DHT22;63920;52.130;5.584;2022-11-15T00:19:36;7.40;96.50
75321;DHT22;63920;52.130;5.584;2022-11-15T00:22:02;7.40;96.60
75321;DHT22;63920;52.130;5.584;2022-11-15T00:24:27;7.40;96.70
75321;DHT22;63920;52.130;5.584;2022-11-15T00:26:53;7.40;97.00
75321;DHT22;63920;52.130;5.584;2022-11-15T00:29:18;7.40;96.90
75321;DHT22;63920;52.130;5.584;2022-11-15T00:31:44;7.50;97.10
75321;DHT22;63920;52.130;5.584;2022-11-15T00:34:09;7.50;97.10
75321;DHT22;63920;52.130;5.584;2022-11-15T00:36:35;7.50;97.40
75321;DHT22;63920;52.130;5.584;2022-11-15T00:39:03;7.40;97.30
75321;DHT22;63920;52.130;5.584;2022-11-15T00:41:30;7.50;97.20
75321;DHT22;63920;52.130;5.584;2022-11-15T00:43:56;7.50;97.40
75321;DHT22;63920;52.130;5.584;2022-11-15T00:46:21;7.50;97.60
75321;DHT22;63920;52.130;5.584;2022-11-15T00:48:47;7.50;97.50
75321;DHT22;63920;52.130;5.584;2022-11-15T00:51:12;7.50;97.70
75321;DHT22;63920;52.130;5.584;2022-11-15T00:53:38;7.60;97.80
75321;DHT22;63920;52.130;5.584;2022-11-15T00:56:04;7.50;97.80
75321;DHT22;63920;52.130;5.584;2022-11-15T00:58:30;7.60;97.90
75321;DHT22;63920;52.130;5.584;2022-11-15T01:00:55;7.60;97.90
75321;DHT22;63920;52.130;5.584;2022-11-15T01:03:21;7.60;97.90
75321;DHT22;63920;52.130;5.584;2022-11-15T01:05:46;7.60;98.00
75321;DHT22;63920;52.130;5.584;2022-11-15T01:08:14;7.70;98.10
75321;DHT22;63920;52.130;5.584;2022-11-15T01:10:40;7.70;98.00
75321;DHT22;63920;52.130;5.584;2022-11-15T01:13:05;7.70;98.10
75321;DHT22;63920;52.130;5.584;2022-11-15T01:15:31;7.70;98.10
75321;DHT22;63920;52.130;5.584;2022-11-15T01:17:56;7.70;98.30
75321;DHT22;63920;52.130;5.584;2022-11-15T01:20:22;7.70;98.10
75321;DHT22;63920;52.130;5.584;2022-11-15T01:22:47;7.80;98.30
75321;DHT22;63920;52.130;5.584;2022-11-15T01:25:13;7.80;98.10
75321;DHT22;63920;52.130;5.584;2022-11-15T01:27:39;7.80;98.30
75321;DHT22;63920;52.130;5.584;2022-11-15T01:30:05;7.80;98.40
75321;DHT22;63920;52.130;5.584;2022-11-15T01:32:31;7.80;98.40
75321;DHT22;63920;52.130;5.584;2022-11-15T01:34:56;7.90;98.50
75321;DHT22;63920;52.130;5.584;2022-11-15T01:37:22;7.90;98.20
75321;DHT22;63920;52.130;5.584;2022-11-15T01:39:47;7.90;98.40
75321;DHT22;63920;52.130;5.584;2022-11-15T01:42:13;7.90;98.50
75321;DHT22;63920;52.130;5.584;2022-11-15T01:44:45;8.00;98.50
75321;DHT22;63920;52.130;5.584;2022-11-15T01:47:19;7.90;98.50
75321;DHT22;63920;52.130;5.584;2022-11-15T01:49:54;7.90;98.60
75321;DHT22;63920;52.130;5.584;2022-11-15T01:52:23;7.90;99.00
75321;DHT22;63920;52.130;5.584;2022-11-15T01:54:55;7.90;98.80
75321;DHT22;63920;52.130;5.584;2022-11-15T01:57:22;7.90;98.80
75321;DHT22;63920;52.130;5.584;2022-11-15T01:59:47;7.90;98.80
75321;DHT22;63920;52.130;5.584;2022-11-15T02:02:13;7.90;98.90
75321;DHT22;63920;52.130;5.584;2022-11-15T02:04:42;8.00;99.00
75321;DHT22;63920;52.130;5.584;2022-11-15T02:07:10;7.90;99.00
75321;DHT22;63920;52.130;5.584;2022-11-15T02:09:37;8.10;99.10
75321;DHT22;63920;52.130;5.584;2022-11-15T02:12:02;8.00;99.00
75321;DHT22;63920;52.130;5.584;2022-11-15T02:14:29;8.10;99.10
75321;DHT22;63920;52.130;5.584;2022-11-15T02:31:49;8.20;99.20
75321;DHT22;63920;52.130;5.584;2022-11-15T02:34:38;8.20;99.60
75321;DHT22;63920;52.130;5.584;2022-11-15T02:39:51;8.30;99.10
75321;DHT22;63920;52.130;5.584;2022-11-15T02:42:23;8.30;99.20
75321;DHT22;63920;52.130;5.584;2022-11-15T02:45:16;8.40;99.20
75321;DHT22;63920;52.130;5.584;2022-11-15T02:47:45;8.50;99.10
75321;DHT22;63920;52.130;5.584;2022-11-15T02:50:16;8.50;99.20
75321;DHT22;63920;52.130;5.584;2022-11-15T02:52:45;8.50;99.30
75321;DHT22;63920;52.130;5.584;2022-11-15T02:55:31;8.50;99.10
75321;DHT22;63920;52.130;5.584;2022-11-15T03:04:50;8.60;99.10
75321;DHT22;63920;52.130;5.584;2022-11-15T03:07:02;8.60;99.20
75321;DHT22;63920;52.130;5.584;2022-11-15T03:09:39;8.70;99.30
75321;DHT22;63920;52.130;5.584;2022-11-15T03:12:16;8.70;99.30
75321;DHT22;63920;52.130;5.584;2022-11-15T03:15:17;8.70;99.30
75321;DHT22;63920;52.130;5.584;2022-11-15T03:20:24;8.80;99.50
75321;DHT22;63920;52.130;5.584;2022-11-15T03:22:51;8.90;99.60
75321;DHT22;63920;52.130;5.584;2022-11-15T03:25:21;8.80;99.60
75321;DHT22;63920;52.130;5.584;2022-11-15T03:27:53;8.90;99.60
75321;DHT22;63920;52.130;5.584;2022-11-15T03:30:20;8.90;99.80
75321;DHT22;63920;52.130;5.584;2022-11-15T03:32:56;9.00;99.80
75321;DHT22;63920;52.130;5.584;2022-11-15T03:35:25;9.00;99.60
75321;DHT22;63920;52.130;5.584;2022-11-15T03:40:54;9.00;99.70
75321;DHT22;63920;52.130;5.584;2022-11-15T03:46:14;9.00;99.80
75321;DHT22;63920;52.130;5.584;2022-11-15T03:48:49;9.10;99.90
75321;DHT22;63920;52.130;5.584;2022-11-15T03:51:16;9.10;99.90
75321;DHT22;63920;52.130;5.584;2022-11-15T03:53:42;9.20;99.90
75321;DHT22;63920;52.130;5.584;2022-11-15T03:56:07;9.20;99.90
75321;DHT22;63920;52.130;5.584;2022-11-15T03:58:33;9.20;99.90
75321;DHT22;63920;52.130;5.584;2022-11-15T04:00:58;9.30;99.90
75321;DHT22;63920;52.130;5.584;2022-11-15T04:03:27;9.30;99.90
75321;DHT22;63920;52.130;5.584;2022-11-15T04:05:53;9.40;99.90
75321;DHT22;63920;52.130;5.584;2022-11-15T04:08:18;9.40;99.90
75321;DHT22;63920;52.130;5.584;2022-11-15T04:10:44;9.40;99.90
75321;DHT22;63920;52.130;5.584;2022-11-15T04:13:09;9.50;99.90
75321;DHT22;63920;52.130;5.584;2022-11-15T04:15:35;9.50;99.90
75321;DHT22;63920;52.130;5.584;2022-11-15T04:18:01;9.60;99.90
75321;DHT22;63920;52.130;5.584;2022-11-15T04:20:29;9.60;99.90
75321;DHT22;63920;52.130;5.584;2022-11-15T04:23:18;9.60;99.90
75321;DHT22;63920;52.130;5.584;2022-11-15T04:26:12;9.60;99.90
75321;DHT22;63920;52.130;5.584;2022-11-15T04:28:39;9.60;99.90
75321;DHT22;63920;52.130;5.584;2022-11-15T04:31:25;9.70;99.90
75321;DHT22;63920;52.130;5.584;2022-11-15T04:33:51;9.70;99.90
75321;DHT22;63920;52.130;5.584;2022-11-15T04:36:17;9.70;99.90
75321;DHT22;63920;52.130;5.584;2022-11-15T04:39:01;9.80;99.90
75321;DHT22;63920;52.130;5.584;2022-11-15T04:41:26;9.70;99.90
75321;DHT22;63920;52.130;5.584;2022-11-15T04:43:52;9.80;99.90
75321;DHT22;63920;52.130;5.584;2022-11-15T04:46:17;9.80;99.90
75321;DHT22;63920;52.130;5.584;2022-11-15T04:48:43;9.80;99.90
75321;DHT22;63920;52.130;5.584;2022-11-15T04:51:08;9.80;99.90
75321;DHT22;63920;52.130;5.584;2022-11-15T04:53:34;9.80;99.90
75321;DHT22;63920;52.130;5.584;2022-11-15T04:55:59;9.80;99.90
75321;DHT22;63920;52.130;5.584;2022-11-15T04:58:25;9.90;99.90
75321;DHT22;63920;52.130;5.584;2022-11-15T05:00:50;9.90;99.90
75321;DHT22;63920;52.130;5.584;2022-11-15T05:03:16;9.90;99.90
75321;DHT22;63920;52.130;5.584;2022-11-15T05:06:00;10.00;99.90
75321;DHT22;63920;52.130;5.584;2022-11-15T05:08:26;10.00;99.90
75321;DHT22;63920;52.130;5.584;2022-11-15T05:10:51;10.00;99.90
75321;DHT22;63920;52.130;5.584;2022-11-15T05:13:17;10.00;99.90
75321;DHT22;63920;52.130;5.584;2022-11-15T05:15:43;9.90;99.90
75321;DHT22;63920;52.130;5.584;2022-11-15T05:18:09;10.00;99.90
75321;DHT22;63920;52.130;5.584;2022-11-15T05:20:34;10.00;99.90
75321;DHT22;63920;52.130;5.584;2022-11-15T05:23:00;10.10;99.90
75321;DHT22;63920;52.130;5.584;2022-11-15T05:25:26;10.00;99.90
75321;DHT22;63920;52.130;5.584;2022-11-15T05:27:51;10.00;99.90
75321;DHT22;63920;52.130;5.584;2022-11-15T05:30:17;10.10;99.90
75321;DHT22;63920;52.130;5.584;2022-11-15T05:32:43;10.00;99.90
75321;DHT22;63920;52.130;5.584;2022-11-15T05:35:13;10.10;99.90
75321;DHT22;63920;52.130;5.584;2022-11-15T05:37:41;10.00;99.90
75321;DHT22;63920;52.130;5.584;2022-11-15T05:40:07;10.00;99.90
75321;DHT22;63920;52.130;5.584;2022-11-15T05:42:33;10.10;99.90
75321;DHT22;63920;52.130;5.584;2022-11-15T05:45:00;10.10;99.90
75321;DHT22;63920;52.130;5.584;2022-11-15T05:47:29;10.00;99.90
75321;DHT22;63920;52.130;5.584;2022-11-15T05:49:55;10.20;99.90
75321;DHT22;63920;52.130;5.584;2022-11-15T05:52:25;10.20;99.90
75321;DHT22;63920;52.130;5.584;2022-11-15T05:54:55;10.20;99.90
75321;DHT22;63920;52.130;5.584;2022-11-15T05:57:22;10.20;99.90
75321;DHT22;63920;52.130;5.584;2022-11-15T05:59:47;10.20;99.90
75321;DHT22;63920;52.130;5.584;2022-11-15T06:02:13;10.20;99.90
75321;DHT22;63920;52.130;5.584;2022-11-15T06:04:38;10.30;99.90
75321;DHT22;63920;52.130;5.584;2022-11-15T06:07:04;10.30;99.90
75321;DHT22;63920;52.130;5.584;2022-11-15T06:09:29;10.40;99.90
75321;DHT22;63920;52.130;5.584;2022-11-15T06:11:55;10.30;99.90
75321;DHT22;63920;52.130;5.584;2022-11-15T06:14:22;10.30;99.90
75321;DHT22;63920;52.130;5.584;2022-11-15T06:16:47;10.30;99.90
75321;DHT22;63920;52.130;5.584;2022-11-15T06:19:13;10.40;99.90
75321;DHT22;63920;52.130;5.584;2022-11-15T06:21:38;10.40;99.90
75321;DHT22;63920;52.130;5.584;2022-11-15T06:24:04;10.40;99.90
75321;DHT22;63920;52.130;5.584;2022-11-15T06:26:30;10.40;99.90
75321;DHT22;63920;52.130;5.584;2022-11-15T06:28:56;10.40;99.90
75321;DHT22;63920;52.130;5.584;2022-11-15T06:31:21;10.40;99.90
75321;DHT22;63920;52.130;5.584;2022-11-15T06:33:47;10.40;99.90
75321;DHT22;63920;52.130;5.584;2022-11-15T06:36:14;10.40;99.90
75321;DHT22;63920;52.130;5.584;2022-11-15T06:38:42;10.40;99.90
75321;DHT22;63920;52.130;5.584;2022-11-15T06:41:09;10.50;99.90
75321;DHT22;63920;52.130;5.584;2022-11-15T06:43:35;10.50;99.90
75321;DHT22;63920;52.130;5.584;2022-11-15T06:46:03;10.50;99.90
75321;DHT22;63920;52.130;5.584;2022-11-15T06:48:29;10.50;99.90
75321;DHT22;63920;52.130;5.584;2022-11-15T06:50:57;10.50;99.90
75321;DHT22;63920;52.130;5.584;2022-11-15T06:53:30;10.50;99.90
75321;DHT22;63920;52.130;5.584;2022-11-15T06:56:04;10.40;99.90
75321;DHT22;63920;52.130;5.584;2022-11-15T06:58:30;10.50;99.90
75321;DHT22;63920;52.130;5.584;2022-11-15T07:01:05;10.60;99.90
75321;DHT22;63920;52.130;5.584;2022-11-15T07:03:31;10.60;99.90
75321;DHT22;63920;52.130;5.584;2022-11-15T07:05:57;10.60;99.90
75321;DHT22;63920;52.130;5.584;2022-11-15T07:08:24;10.60;99.90
75321;DHT22;63920;52.130;5.584;2022-11-15T07:10:51;10.60;99.90
75321;DHT22;63920;52.130;5.584;2022-11-15T07:13:20;10.60;99.90
75321;DHT22;63920;52.130;5.584;2022-11-15T07:15:49;10.60;99.90
75321;DHT22;63920;52.130;5.584;2022-11-15T07:18:14;10.60;99.90
75321;DHT22;63920;52.130;5.584;2022-11-15T07:20:40;10.50;99.90
75321;DHT22;63920;52.130;5.584;2022-11-15T07:23:05;10.50;99.90
75321;DHT22;63920;52.130;5.584;2022-11-15T07:25:31;10.60;99.90
75321;DHT22;63920;52.130;5.584;2022-11-15T07:27:57;10.60;99.90
75321;DHT22;63920;52.130;5.584;2022-11-15T07:30:23;10.50;99.90
75321;DHT22;63920;52.130;5.584;2022-11-15T07:33:00;10.60;99.90
75321;DHT22;63920;52.130;5.584;2022-11-15T07:35:28;10.50;99.90
75321;DHT22;63920;52.130;5.584;2022-11-15T07:37:57;10.50;99.90
75321;DHT22;63920;52.130;5.584;2022-11-15T07:40:25;10.50;99.90
75321;DHT22;63920;52.130;5.584;2022-11-15T07:42:51;10.60;99.90
75321;DHT22;63920;52.130;5.584;2022-11-15T07:45:21;10.40;99.90
75321;DHT22;63920;52.130;5.584;2022-11-15T07:47:50;10.50;99.90
75321;DHT22;63920;52.130;5.584;2022-11-15T07:50:17;10.50;99.90
75321;DHT22;63920;52.130;5.584;2022-11-15T07:52:43;10.50;99.90
75321;DHT22;63920;52.130;5.584;2022-11-15T07:55:09;10.50;99.90
75321;DHT22;63920;52.130;5.584;2022-11-15T07:57:35;10.60;99.90
75321;DHT22;63920;52.130;5.584;2022-11-15T08:00:00;10.60;99.90
75321;DHT22;63920;52.130;5.584;2022-11-15T08:02:26;10.60;99.90
75321;DHT22;63920;52.130;5.584;2022-11-15T08:04:52;10.60;99.90
75321;DHT22;63920;52.130;5.584;2022-11-15T08:07:17;10.60;99.90
75321;DHT22;63920;52.130;5.584;2022-11-15T08:09:43;10.60;99.90
75321;DHT22;63920;52.130;5.584;2022-11-15T08:12:08;10.60;99.90
75321;DHT22;63920;52.130;5.584;2022-11-15T08:14:35;10.60;99.90
75321;DHT22;63920;52.130;5.584;2022-11-15T08:17:01;10.60;99.90
75321;DHT22;63920;52.130;5.584;2022-11-15T08:19:27;10.60;99.90
75321;DHT22;63920;52.130;5.584;2022-11-15T08:21:52;10.60;99.90
75321;DHT22;63920;52.130;5.584;2022-11-15T08:24:20;10.60;99.90
75321;DHT22;63920;52.130;5.584;2022-11-15T08:26:48;10.60;99.90
75321;DHT22;63920;52.130;5.584;2022-11-15T08:29:13;10.60;99.90
75321;DHT22;63920;52.130;5.584;2022-11-15T08:31:39;10.60;99.90
75321;DHT22;63920;52.130;5.584;2022-11-15T08:34:05;10.70;99.90
75321;DHT22;63920;52.130;5.584;2022-11-15T08:36:31;10.70;99.90
75321;DHT22;63920;52.130;5.584;2022-11-15T08:38:57;10.70;99.90
75321;DHT22;63920;52.130;5.584;2022-11-15T08:41:30;10.70;99.90
75321;DHT22;63920;52.130;5.584;2022-11-15T08:43:56;10.80;99.90
75321;DHT22;63920;52.130;5.584;2022-11-15T08:46:21;10.70;99.90
75321;DHT22;63920;52.130;5.584;2022-11-15T08:48:47;10.80;99.90
75321;DHT22;63920;52.130;5.584;2022-11-15T08:51:13;10.80;99.80
75321;DHT22;63920;52.130;5.584;2022-11-15T08:53:39;10.80;99.70
75321;DHT22;63920;52.130;5.584;2022-11-15T08:56:08;10.80;99.70
75321;DHT22;63920;52.130;5.584;2022-11-15T08:58:34;10.90;99.50
75321;DHT22;63920;52.130;5.584;2022-11-15T09:01:00;10.80;99.30
75321;DHT22;63920;52.130;5.584;2022-11-15T09:03:26;10.80;99.20
75321;DHT22;63920;52.130;5.584;2022-11-15T09:05:58;10.90;99.50
75321;DHT22;63920;52.130;5.584;2022-11-15T09:08:28;10.90;99.10
75321;DHT22;63920;52.130;5.584;2022-11-15T09:10:54;10.90;98.90
75321;DHT22;63920;52.130;5.584;2022-11-15T09:13:20;10.90;98.90
75321;DHT22;63920;52.130;5.584;2022-11-15T09:15:45;11.00;98.80
75321;DHT22;63920;52.130;5.584;2022-11-15T09:18:11;11.10;98.80
75321;DHT22;63920;52.130;5.584;2022-11-15T09:20:37;11.10;98.60
75321;DHT22;63920;52.130;5.584;2022-11-15T09:23:04;11.20;98.90
75321;DHT22;63920;52.130;5.584;2022-11-15T09:25:30;11.20;98.10
75321;DHT22;63920;52.130;5.584;2022-11-15T09:27:56;11.30;97.80
75321;DHT22;63920;52.130;5.584;2022-11-15T09:30:23;11.30;97.70
75321;DHT22;63920;52.130;5.584;2022-11-15T09:32:48;11.20;97.90
75321;DHT22;63920;52.130;5.584;2022-11-15T09:35:14;11.20;97.70
75321;DHT22;63920;52.130;5.584;2022-11-15T09:37:40;11.20;97.80
75321;DHT22;63920;52.130;5.584;2022-11-15T09:40:09;11.20;97.80
75321;DHT22;63920;52.130;5.584;2022-11-15T09:45:37;11.20;98.10
75321;DHT22;63920;52.130;5.584;2022-11-15T09:51:14;11.30;97.90
75321;DHT22;63920;52.130;5.584;2022-11-15T09:56:42;11.20;98.10
75321;DHT22;63920;52.130;5.584;2022-11-15T09:59:43;11.20;97.50
75321;DHT22;63920;52.130;5.584;2022-11-15T10:05:12;11.20;97.00
75321;DHT22;63920;52.130;5.584;2022-11-15T10:10:27;11.40;96.60
75321;DHT22;63920;52.130;5.584;2022-11-15T10:12:55;11.60;96.50
75321;DHT22;63920;52.130;5.584;2022-11-15T10:15:21;11.60;95.90
75321;DHT22;63920;52.130;5.584;2022-11-15T10:20:27;11.70;95.50
75321;DHT22;63920;52.130;5.584;2022-11-15T10:23:00;11.70;95.00
75321;DHT22;63920;52.130;5.584;2022-11-15T10:25:27;11.60;95.00
75321;DHT22;63920;52.130;5.584;2022-11-15T10:27:57;11.70;94.70
75321;DHT22;63920;52.130;5.584;2022-11-15T10:30:29;11.70;94.70
75321;DHT22;63920;52.130;5.584;2022-11-15T10:32:55;11.70;94.50
75321;DHT22;63920;52.130;5.584;2022-11-15T10:35:29;11.70;94.80
75321;DHT22;63920;52.130;5.584;2022-11-15T10:38:09;11.70;94.70
75321;DHT22;63920;52.130;5.584;2022-11-15T10:40:36;11.70;94.40
75321;DHT22;63920;52.130;5.584;2022-11-15T10:43:18;11.70;94.10
75321;DHT22;63920;52.130;5.584;2022-11-15T10:45:45;11.70;93.40
75321;DHT22;63920;52.130;5.584;2022-11-15T10:50:44;11.70;93.40
75321;DHT22;63920;52.130;5.584;2022-11-15T10:55:47;11.80;93.20
75321;DHT22;63920;52.130;5.584;2022-11-15T10:58:38;11.70;92.50
75321;DHT22;63920;52.130;5.584;2022-11-15T11:01:10;11.70;92.20
75321;DHT22;63920;52.130;5.584;2022-11-15T11:03:37;11.90;92.50
75321;DHT22;63920;52.130;5.584;2022-11-15T11:06:14;11.80;92.60
75321;DHT22;63920;52.130;5.584;2022-11-15T11:08:40;11.80;92.60
75321;DHT22;63920;52.130;5.584;2022-11-15T11:11:17;11.80;92.60
75321;DHT22;63920;52.130;5.584;2022-11-15T11:13:43;11.80;92.10
75321;DHT22;63920;52.130;5.584;2022-11-15T11:24:44;12.00;91.90
75321;DHT22;63920;52.130;5.584;2022-11-15T11:30:01;12.10;91.90
75321;DHT22;63920;52.130;5.584;2022-11-15T11:32:48;12.10;91.30
75321;DHT22;63920;52.130;5.584;2022-11-15T11:55:14;12.00;90.40
75321;DHT22;63920;52.130;5.584;2022-11-15T11:57:44;11.90;90.30
75321;DHT22;63920;52.130;5.584;2022-11-15T12:00:19;11.90;90.40
75321;DHT22;63920;52.130;5.584;2022-11-15T12:03:11;11.90;90.20
75321;DHT22;63920;52.130;5.584;2022-11-15T12:08:26;11.90;90.00
75321;DHT22;63920;52.130;5.584;2022-11-15T12:11:17;12.00;89.50
75321;DHT22;63920;52.130;5.584;2022-11-15T12:13:45;12.00;89.90
75321;DHT22;63920;52.130;5.584;2022-11-15T12:16:23;12.10;89.90
75321;DHT22;63920;52.130;5.584;2022-11-15T12:18:58;12.20;89.50
75321;DHT22;63920;52.130;5.584;2022-11-15T12:21:44;12.20;88.00
75321;DHT22;63920;52.130;5.584;2022-11-15T12:24:23;12.20;88.00
75321;DHT22;63920;52.130;5.584;2022-11-15T12:26:55;12.10;87.20
75321;DHT22;63920;52.130;5.584;2022-11-15T12:29:29;12.00;86.80
75321;DHT22;63920;52.130;5.584;2022-11-15T12:31:57;12.00;87.60
75321;DHT22;63920;52.130;5.584;2022-11-15T12:36:53;11.90;87.20
75321;DHT22;63920;52.130;5.584;2022-11-15T12:39:20;12.10;87.90
75321;DHT22;63920;52.130;5.584;2022-11-15T12:47:25;12.20;86.30
75321;DHT22;63920;52.130;5.584;2022-11-15T12:49:51;12.20;86.50
75321;DHT22;63920;52.130;5.584;2022-11-15T12:52:18;12.20;87.20
75321;DHT22;63920;52.130;5.584;2022-11-15T12:54:55;12.20;86.30
75321;DHT22;63920;52.130;5.584;2022-11-15T12:57:32;12.30;85.90
75321;DHT22;63920;52.130;5.584;2022-11-15T13:02:42;12.30;84.60
75321;DHT22;63920;52.130;5.584;2022-11-15T13:17:57;12.50;83.50
75321;DHT22;63920;52.130;5.584;2022-11-15T13:20:28;12.50;83.60
75321;DHT22;63920;52.130;5.584;2022-11-15T13:23:12;12.40;83.60
75321;DHT22;63920;52.130;5.584;2022-11-15T13:25:47;12.40;84.20
75321;DHT22;63920;52.130;5.584;2022-11-15T13:30:41;12.40;83.70
75321;DHT22;63920;52.130;5.584;2022-11-15T13:33:19;12.30;83.40
75321;DHT22;63920;52.130;5.584;2022-11-15T13:35:47;12.30;83.80
75321;DHT22;63920;52.130;5.584;2022-11-15T13:38:30;12.20;83.60
75321;DHT22;63920;52.130;5.584;2022-11-15T13:40:57;12.30;82.10
75321;DHT22;63920;52.130;5.584;2022-11-15T13:46:18;12.30;81.50
75321;DHT22;63920;52.130;5.584;2022-11-15T13:48:46;12.30;81.40
75321;DHT22;63920;52.130;5.584;2022-11-15T13:51:27;12.30;81.90
75321;DHT22;63920;52.130;5.584;2022-11-15T13:54:01;12.20;82.30
75321;DHT22;63920;52.130;5.584;2022-11-15T13:56:29;12.10;83.10
75321;DHT22;63920;52.130;5.584;2022-11-15T13:58:56;12.10;83.50
75321;DHT22;63920;52.130;5.584;2022-11-15T14:01:22;12.10;83.10
75321;DHT22;63920;52.130;5.584;2022-11-15T14:03:56;12.10;83.00
75321;DHT22;63920;52.130;5.584;2022-11-15T14:06:24;12.10;82.80
75321;DHT22;63920;52.130;5.584;2022-11-15T14:11:29;12.20;83.00
75321;DHT22;63920;52.130;5.584;2022-11-15T14:16:41;12.10;82.60
75321;DHT22;63920;52.130;5.584;2022-11-15T14:22:08;12.00;82.50
75321;DHT22;63920;52.130;5.584;2022-11-15T14:24:34;12.00;83.30
75321;DHT22;63920;52.130;5.584;2022-11-15T14:29:47;12.00;82.70
75321;DHT22;63920;52.130;5.584;2022-11-15T14:32:16;12.00;82.40
75321;DHT22;63920;52.130;5.584;2022-11-15T14:34:42;12.00;82.10
75321;DHT22;63920;52.130;5.584;2022-11-15T14:37:24;12.00;82.80
75321;DHT22;63920;52.130;5.584;2022-11-15T14:39:50;11.90;82.40
75321;DHT22;63920;52.130;5.584;2022-11-15T14:42:16;12.00;82.80
75321;DHT22;63920;52.130;5.584;2022-11-15T14:44:42;12.00;82.90
75321;DHT22;63920;52.130;5.584;2022-11-15T14:47:08;12.00;82.10
75321;DHT22;63920;52.130;5.584;2022-11-15T14:49:33;12.00;82.30
75321;DHT22;63920;52.130;5.584;2022-11-15T14:51:59;11.90;82.00
75321;DHT22;63920;52.130;5.584;2022-11-15T14:54:25;12.00;81.90
75321;DHT22;63920;52.130;5.584;2022-11-15T14:56:50;12.00;81.90
75321;DHT22;63920;52.130;5.584;2022-11-15T14:59:16;11.90;82.40
75321;DHT22;63920;52.130;5.584;2022-11-15T15:01:41;11.90;82.10
75321;DHT22;63920;52.130;5.584;2022-11-15T15:04:10;12.00;81.90
75321;DHT22;63920;52.130;5.584;2022-11-15T15:06:35;11.90;81.80
75321;DHT22;63920;52.130;5.584;2022-11-15T15:09:01;11.90;82.60
75321;DHT22;63920;52.130;5.584;2022-11-15T15:11:29;11.80;82.60
75321;DHT22;63920;52.130;5.584;2022-11-15T15:13:55;11.90;82.00
75321;DHT22;63920;52.130;5.584;2022-11-15T15:16:23;11.80;82.70
75321;DHT22;63920;52.130;5.584;2022-11-15T15:18:49;11.80;82.50
75321;DHT22;63920;52.130;5.584;2022-11-15T15:21:24;11.90;82.00
75321;DHT22;63920;52.130;5.584;2022-11-15T15:23:51;11.90;82.30
75321;DHT22;63920;52.130;5.584;2022-11-15T15:26:17;11.90;82.00
75321;DHT22;63920;52.130;5.584;2022-11-15T15:28:42;11.90;82.30
75321;DHT22;63920;52.130;5.584;2022-11-15T15:31:09;11.90;82.10
75321;DHT22;63920;52.130;5.584;2022-11-15T15:33:35;11.90;81.50
75321;DHT22;63920;52.130;5.584;2022-11-15T15:36:01;12.00;81.10
75321;DHT22;63920;52.130;5.584;2022-11-15T15:38:27;12.10;80.60
75321;DHT22;63920;52.130;5.584;2022-11-15T15:40:53;12.10;80.70
75321;DHT22;63920;52.130;5.584;2022-11-15T15:43:18;12.10;80.00
75321;DHT22;63920;52.130;5.584;2022-11-15T15:45:44;12.10;79.80
75321;DHT22;63920;52.130;5.584;2022-11-15T15:48:16;12.00;79.90
75321;DHT22;63920;52.130;5.584;2022-11-15T15:50:43;12.00;80.10
75321;DHT22;63920;52.130;5.584;2022-11-15T15:53:09;12.00;79.30
75321;DHT22;63920;52.130;5.584;2022-11-15T15:55:36;12.00;79.90
75321;DHT22;63920;52.130;5.584;2022-11-15T15:58:02;12.00;79.50
75321;DHT22;63920;52.130;5.584;2022-11-15T16:00:28;12.00;78.90
75321;DHT22;63920;52.130;5.584;2022-11-15T16:02:54;12.00;78.90
75321;DHT22;63920;52.130;5.584;2022-11-15T16:05:21;12.00;79.80
75321;DHT22;63920;52.130;5.584;2022-11-15T16:07:46;12.00;79.20
75321;DHT22;63920;52.130;5.584;2022-11-15T16:10:33;12.00;79.50
75321;DHT22;63920;52.130;5.584;2022-11-15T16:13:02;12.00;79.90
75321;DHT22;63920;52.130;5.584;2022-11-15T16:15:30;12.10;79.70
75321;DHT22;63920;52.130;5.584;2022-11-15T16:17:57;12.20;79.00
75321;DHT22;63920;52.130;5.584;2022-11-15T16:23:08;12.20;79.50
75321;DHT22;63920;52.130;5.584;2022-11-15T16:25:39;12.20;80.60
75321;DHT22;63920;52.130;5.584;2022-11-15T16:28:07;12.10;80.50
75321;DHT22;63920;52.130;5.584;2022-11-15T16:30:37;12.10;81.00
75321;DHT22;63920;52.130;5.584;2022-11-15T16:33:02;12.10;81.60
75321;DHT22;63920;52.130;5.584;2022-11-15T16:35:28;12.10;81.60
75321;DHT22;63920;52.130;5.584;2022-11-15T16:37:53;12.10;81.80
75321;DHT22;63920;52.130;5.584;2022-11-15T16:40:28;12.20;81.50
75321;DHT22;63920;52.130;5.584;2022-11-15T16:42:56;12.20;82.50
75321;DHT22;63920;52.130;5.584;2022-11-15T16:45:22;12.20;81.90
75321;DHT22;63920;52.130;5.584;2022-11-15T16:47:48;12.20;82.00
75321;DHT22;63920;52.130;5.584;2022-11-15T16:50:20;12.10;82.70
75321;DHT22;63920;52.130;5.584;2022-11-15T16:52:53;12.10;83.00
75321;DHT22;63920;52.130;5.584;2022-11-15T16:55:20;12.30;82.60
75321;DHT22;63920;52.130;5.584;2022-11-15T16:57:47;12.20;82.80
75321;DHT22;63920;52.130;5.584;2022-11-15T17:00:13;12.30;82.70
75321;DHT22;63920;52.130;5.584;2022-11-15T17:02:44;12.30;82.90
75321;DHT22;63920;52.130;5.584;2022-11-15T17:05:11;12.30;83.00
75321;DHT22;63920;52.130;5.584;2022-11-15T17:07:37;12.30;83.20
75321;DHT22;63920;52.130;5.584;2022-11-15T17:10:03;12.30;83.40
75321;DHT22;63920;52.130;5.584;2022-11-15T17:12:29;12.40;83.90
75321;DHT22;63920;52.130;5.584;2022-11-15T17:14:55;12.40;84.90
75321;DHT22;63920;52.130;5.584;2022-11-15T17:17:21;12.30;85.40
75321;DHT22;63920;52.130;5.584;2022-11-15T17:19:47;12.40;85.70
75321;DHT22;63920;52.130;5.584;2022-11-15T17:22:12;12.40;86.40
75321;DHT22;63920;52.130;5.584;2022-11-15T17:24:38;12.40;87.60
75321;DHT22;63920;52.130;5.584;2022-11-15T17:27:04;12.30;87.70
75321;DHT22;63920;52.130;5.584;2022-11-15T17:29:29;12.30;87.90
75321;DHT22;63920;52.130;5.584;2022-11-15T17:31:55;12.20;88.90
75321;DHT22;63920;52.130;5.584;2022-11-15T17:34:20;12.20;89.60
75321;DHT22;63920;52.130;5.584;2022-11-15T17:36:47;12.20;89.70
75321;DHT22;63920;52.130;5.584;2022-11-15T17:39:12;12.20;90.10
75321;DHT22;63920;52.130;5.584;2022-11-15T17:41:38;12.10;90.40
75321;DHT22;63920;52.130;5.584;2022-11-15T17:44:03;12.10;90.90
75321;DHT22;63920;52.130;5.584;2022-11-15T17:46:29;12.00;90.80
75321;DHT22;63920;52.130;5.584;2022-11-15T17:48:56;12.00;91.20
75321;DHT22;63920;52.130;5.584;2022-11-15T17:51:21;11.90;91.40
75321;DHT22;63920;52.130;5.584;2022-11-15T17:53:48;11.80;91.80